createdAt,value
2018-01-21T00:00:31.616Z,989.41
2018-01-21T00:01:12.136Z,989.51
2018-01-21T00:01:52.715Z,989.55
2018-01-21T00:02:33.289Z,989.58
2018-01-21T00:03:13.875Z,989.62
2018-01-21T00:03:54.424Z,989.59
2018-01-21T00:04:34.928Z,989.62
2018-01-21T00:05:15.478Z,989.68
2018-01-21T00:05:56.005Z,989.72
2018-01-21T00:06:36.646Z,989.72
2018-01-21T00:07:17.244Z,989.74
2018-01-21T00:07:58.019Z,989.73
2018-01-21T00:08:38.625Z,989.78
2018-01-21T00:09:19.109Z,989.81
2018-01-21T00:09:59.644Z,989.79
2018-01-21T00:10:40.226Z,989.77
2018-01-21T00:11:20.805Z,989.8
2018-01-21T00:12:01.287Z,989.77
2018-01-21T00:12:41.909Z,989.83
2018-01-21T00:13:22.406Z,989.84
2018-01-21T00:14:02.946Z,989.83
2018-01-21T00:14:43.483Z,989.85
2018-01-21T00:15:24.043Z,989.9
2018-01-21T00:16:04.551Z,989.93
2018-01-21T00:16:45.187Z,989.92
2018-01-21T00:17:25.708Z,990.03
2018-01-21T00:18:06.328Z,990.07
2018-01-21T00:18:46.875Z,990.07
2018-01-21T00:19:27.411Z,990.11
2018-01-21T00:20:08.010Z,990.12
2018-01-21T00:20:48.554Z,990.14
2018-01-21T00:21:29.089Z,990.16
2018-01-21T00:22:09.665Z,990.2
2018-01-21T00:22:50.155Z,990.24
2018-01-21T00:23:30.706Z,990.28
2018-01-21T00:24:11.202Z,990.25
2018-01-21T00:24:51.802Z,990.32
2018-01-21T00:25:32.355Z,990.33
2018-01-21T00:26:12.902Z,990.37
2018-01-21T00:26:53.667Z,990.4
2018-01-21T00:27:34.255Z,990.35
2018-01-21T00:28:14.782Z,990.38
2018-01-21T00:28:55.348Z,990.45
2018-01-21T00:29:35.892Z,990.44
2018-01-21T00:30:16.464Z,990.51
2018-01-21T00:30:57.060Z,990.48
2018-01-21T00:31:37.606Z,990.51
2018-01-21T00:32:18.183Z,990.51
2018-01-21T00:32:58.792Z,990.53
2018-01-21T00:33:39.315Z,990.58
2018-01-21T00:34:19.954Z,990.62
2018-01-21T00:35:00.441Z,990.61
2018-01-21T00:35:41.060Z,990.68
2018-01-21T00:36:21.542Z,990.71
2018-01-21T00:37:02.153Z,990.7
2018-01-21T00:37:42.614Z,990.68
2018-01-21T00:38:23.220Z,990.65
2018-01-21T00:39:03.832Z,990.72
2018-01-21T00:39:44.395Z,990.68
2018-01-21T00:40:24.904Z,990.68
2018-01-21T00:41:05.436Z,990.72
2018-01-21T00:41:45.949Z,990.71
2018-01-21T00:42:26.554Z,990.76
2018-01-21T00:43:07.173Z,990.71
2018-01-21T00:43:47.683Z,990.76
2018-01-21T00:44:28.197Z,990.78
2018-01-21T00:45:08.797Z,990.77
2018-01-21T00:45:49.298Z,990.83
2018-01-21T00:46:29.815Z,990.82
2018-01-21T00:47:10.338Z,990.84
2018-01-21T00:47:50.878Z,990.86
2018-01-21T00:48:31.426Z,990.87
2018-01-21T00:49:12.017Z,990.91
2018-01-21T00:49:52.564Z,990.94
2018-01-21T00:50:33.028Z,990.94
2018-01-21T00:52:54.340Z,991.02
2018-01-21T00:53:34.908Z,991.07
2018-01-21T00:54:15.466Z,991.07
2018-01-21T00:54:55.967Z,991.09
2018-01-21T00:55:36.542Z,991.09
2018-01-21T00:56:17.101Z,991.05
2018-01-21T00:56:57.672Z,991.09
2018-01-21T00:57:38.221Z,991.11
2018-01-21T00:58:18.709Z,991.1
2018-01-21T00:58:59.295Z,991.14
2018-01-21T00:59:39.800Z,991.18
2018-01-21T01:00:20.336Z,991.16
2018-01-21T01:01:00.911Z,991.22
2018-01-21T01:01:41.431Z,991.3
2018-01-21T01:02:21.949Z,991.33
2018-01-21T01:03:02.516Z,991.3
2018-01-21T01:03:43.074Z,991.32
2018-01-21T01:04:23.606Z,991.34
2018-01-21T01:05:04.145Z,991.34
2018-01-21T01:05:44.713Z,991.34
2018-01-21T01:06:25.366Z,991.43
2018-01-21T01:07:05.828Z,991.4
2018-01-21T01:07:46.343Z,991.42
2018-01-21T01:08:26.886Z,991.45
2018-01-21T01:09:07.400Z,991.44
2018-01-21T01:09:47.932Z,991.5
2018-01-21T01:10:28.540Z,991.55
2018-01-21T01:11:09.032Z,991.56
2018-01-21T01:11:49.528Z,991.61
2018-01-21T01:12:30.061Z,991.62
2018-01-21T01:13:10.629Z,991.71
2018-01-21T01:13:51.129Z,991.69
2018-01-21T01:14:31.626Z,991.73
2018-01-21T01:15:12.204Z,991.75
2018-01-21T01:15:52.751Z,991.77
2018-01-21T01:16:33.276Z,991.79
2018-01-21T01:17:13.821Z,991.8
2018-01-21T01:17:54.421Z,991.84
2018-01-21T01:18:34.997Z,991.83
2018-01-21T01:19:15.521Z,991.89
2018-01-21T01:19:56.039Z,991.89
2018-01-21T01:20:36.573Z,991.98
2018-01-21T01:21:17.104Z,991.99
2018-01-21T01:21:59.603Z,991.98
2018-01-21T01:22:40.144Z,992
2018-01-21T01:23:20.706Z,992
2018-01-21T01:24:01.207Z,992.03
2018-01-21T01:24:41.715Z,992.06
2018-01-21T01:25:22.275Z,992.06
2018-01-21T01:26:02.788Z,992.1
2018-01-21T01:26:43.375Z,992.12
2018-01-21T01:27:23.926Z,992.16
2018-01-21T01:28:04.465Z,992.2
2018-01-21T01:28:45.006Z,992.23
2018-01-21T01:29:25.531Z,992.29
2018-01-21T01:30:06.099Z,992.33
2018-01-21T01:30:46.620Z,992.36
2018-01-21T01:31:27.227Z,992.33
2018-01-21T01:32:07.765Z,992.38
2018-01-21T01:32:48.318Z,992.31
2018-01-21T01:33:28.891Z,992.32
2018-01-21T01:34:09.438Z,992.36
2018-01-21T01:34:50.006Z,992.31
2018-01-21T01:35:30.601Z,992.3
2018-01-21T01:36:11.071Z,992.37
2018-01-21T01:36:51.632Z,992.47
2018-01-21T01:37:32.162Z,992.5
2018-01-21T01:38:12.689Z,992.52
2018-01-21T01:38:53.221Z,992.51
2018-01-21T01:39:33.760Z,992.52
2018-01-21T01:40:14.290Z,992.53
2018-01-21T01:40:54.817Z,992.53
2018-01-21T01:41:35.387Z,992.49
2018-01-21T01:42:15.941Z,992.52
2018-01-21T01:42:56.495Z,992.55
2018-01-21T01:43:37.040Z,992.53
2018-01-21T01:44:17.604Z,992.51
2018-01-21T01:44:58.119Z,992.55
2018-01-21T01:45:38.645Z,992.57
2018-01-21T01:46:19.142Z,992.57
2018-01-21T01:46:59.661Z,992.61
2018-01-21T01:47:40.225Z,992.58
2018-01-21T01:48:20.725Z,992.62
2018-01-21T01:49:01.279Z,992.65
2018-01-21T01:49:41.856Z,992.66
2018-01-21T01:50:22.379Z,992.72
2018-01-21T01:51:02.900Z,992.74
2018-01-21T01:51:43.491Z,992.77
2018-01-21T01:52:24.006Z,992.7
2018-01-21T01:53:04.544Z,992.74
2018-01-21T01:53:45.052Z,992.77
2018-01-21T01:54:25.616Z,992.81
2018-01-21T01:55:06.128Z,992.78
2018-01-21T01:55:46.638Z,992.78
2018-01-21T01:56:27.208Z,992.77
2018-01-21T01:57:07.796Z,992.78
2018-01-21T01:57:48.305Z,992.81
2018-01-21T01:58:28.892Z,992.82
2018-01-21T01:59:09.389Z,992.89
2018-01-21T01:59:49.947Z,992.9
2018-01-21T02:00:30.485Z,992.92
2018-01-21T02:01:10.995Z,992.88
2018-01-21T02:01:51.552Z,992.92
2018-01-21T02:02:32.118Z,992.92
2018-01-21T02:03:12.719Z,992.97
2018-01-21T02:03:53.712Z,993.02
2018-01-21T02:04:34.226Z,993.01
2018-01-21T02:05:14.717Z,993.06
2018-01-21T02:05:55.319Z,993.09
2018-01-21T02:06:35.807Z,993.08
2018-01-21T02:07:16.370Z,993.1
2018-01-21T02:07:56.924Z,993.07
2018-01-21T02:08:37.453Z,993.09
2018-01-21T02:09:18.013Z,993.07
2018-01-21T02:09:58.525Z,993.08
2018-01-21T02:10:39.047Z,993.15
2018-01-21T02:11:19.594Z,993.15
2018-01-21T02:12:00.144Z,993.19
2018-01-21T02:12:40.679Z,993.2
2018-01-21T02:13:21.245Z,993.22
2018-01-21T02:14:01.750Z,993.31
2018-01-21T02:14:42.337Z,993.29
2018-01-21T02:15:22.822Z,993.31
2018-01-21T02:16:03.447Z,993.3
2018-01-21T02:16:43.970Z,993.32
2018-01-21T02:17:24.507Z,993.31
2018-01-21T02:18:05.055Z,993.29
2018-01-21T02:18:45.638Z,993.34
2018-01-21T02:19:26.195Z,993.38
2018-01-21T02:20:06.743Z,993.37
2018-01-21T02:20:47.271Z,993.37
2018-01-21T02:21:27.788Z,993.45
2018-01-21T02:22:08.353Z,993.42
2018-01-21T02:22:48.847Z,993.45
2018-01-21T02:23:29.373Z,993.46
2018-01-21T02:24:09.931Z,993.42
2018-01-21T02:24:50.547Z,993.49
2018-01-21T02:25:31.121Z,993.43
2018-01-21T02:26:11.683Z,993.51
2018-01-21T02:26:52.306Z,993.52
2018-01-21T02:27:32.872Z,993.57
2018-01-21T02:28:13.344Z,993.56
2018-01-21T02:28:53.891Z,993.59
2018-01-21T02:29:34.439Z,993.63
2018-01-21T02:30:14.974Z,993.66
2018-01-21T02:30:55.490Z,993.69
2018-01-21T02:31:36.038Z,993.7
2018-01-21T02:32:16.589Z,993.68
2018-01-21T02:32:57.145Z,993.71
2018-01-21T02:33:37.633Z,993.7
2018-01-21T02:34:18.265Z,993.73
2018-01-21T02:34:58.753Z,993.74
2018-01-21T02:35:39.396Z,993.79
2018-01-21T02:36:19.916Z,993.86
2018-01-21T02:37:00.455Z,993.84
2018-01-21T02:37:41.021Z,993.86
2018-01-21T02:38:21.528Z,993.84
2018-01-21T02:39:02.037Z,993.89
2018-01-21T02:39:42.608Z,993.96
2018-01-21T02:40:23.123Z,993.98
2018-01-21T02:41:03.614Z,993.99
2018-01-21T02:41:44.137Z,994.02
2018-01-21T02:42:24.718Z,994
2018-01-21T02:43:05.235Z,994.04
2018-01-21T02:43:45.762Z,994.07
2018-01-21T02:44:26.297Z,994.09
2018-01-21T02:45:06.854Z,994.13
2018-01-21T02:45:47.393Z,994.12
2018-01-21T02:46:27.910Z,994.12
2018-01-21T02:47:08.407Z,994.16
2018-01-21T02:47:48.981Z,994.17
2018-01-21T02:48:29.487Z,994.2
2018-01-21T02:49:10.019Z,994.23
2018-01-21T02:49:50.581Z,994.23
2018-01-21T02:50:31.136Z,994.23
2018-01-21T02:51:11.611Z,994.23
2018-01-21T02:51:52.150Z,994.21
2018-01-21T02:52:32.698Z,994.25
2018-01-21T02:53:13.193Z,994.26
2018-01-21T02:53:53.782Z,994.28
2018-01-21T02:54:34.353Z,994.29
2018-01-21T02:55:14.977Z,994.31
2018-01-21T02:55:55.478Z,994.31
2018-01-21T02:56:36.036Z,994.3
2018-01-21T02:57:16.521Z,994.34
2018-01-21T02:57:57.034Z,994.42
2018-01-21T02:58:37.569Z,994.36
2018-01-21T02:59:18.099Z,994.43
2018-01-21T02:59:58.623Z,994.41
2018-01-21T03:00:39.113Z,994.45
2018-01-21T03:01:19.685Z,994.42
2018-01-21T03:02:00.198Z,994.49
2018-01-21T03:02:40.706Z,994.46
2018-01-21T03:03:21.270Z,994.49
2018-01-21T03:04:01.780Z,994.51
2018-01-21T03:04:42.373Z,994.5
2018-01-21T03:05:22.944Z,994.51
2018-01-21T03:06:03.422Z,994.55
2018-01-21T03:06:43.943Z,994.48
2018-01-21T03:07:24.457Z,994.48
2018-01-21T03:08:05.027Z,994.52
2018-01-21T03:08:45.525Z,994.49
2018-01-21T03:09:26.061Z,994.52
2018-01-21T03:10:06.596Z,994.59
2018-01-21T03:10:47.095Z,994.59
2018-01-21T03:11:27.616Z,994.61
2018-01-21T03:12:08.150Z,994.7
2018-01-21T03:12:48.659Z,994.64
2018-01-21T03:13:29.207Z,994.64
2018-01-21T03:14:09.744Z,994.67
2018-01-21T03:14:50.449Z,994.69
2018-01-21T03:15:30.967Z,994.68
2018-01-21T03:16:11.511Z,994.72
2018-01-21T03:16:52.017Z,994.73
2018-01-21T03:17:32.537Z,994.79
2018-01-21T03:18:13.060Z,994.82
2018-01-21T03:18:53.644Z,994.8
2018-01-21T03:19:34.213Z,994.81
2018-01-21T03:20:14.728Z,994.82
2018-01-21T03:20:55.271Z,994.83
2018-01-21T03:21:35.767Z,994.85
2018-01-21T03:22:16.328Z,994.91
2018-01-21T03:22:56.882Z,994.9
2018-01-21T03:23:37.416Z,994.91
2018-01-21T03:24:17.957Z,994.88
2018-01-21T03:24:58.475Z,994.96
2018-01-21T03:25:39.023Z,995
2018-01-21T03:26:19.532Z,995.02
2018-01-21T03:27:00.111Z,995.04
2018-01-21T03:27:40.672Z,995.06
2018-01-21T03:28:21.244Z,995.04
2018-01-21T03:29:01.792Z,995.02
2018-01-21T03:29:42.315Z,994.99
2018-01-21T03:30:22.896Z,994.98
2018-01-21T03:31:03.481Z,995.01
2018-01-21T03:31:44.001Z,995.08
2018-01-21T03:32:24.517Z,995.06
2018-01-21T03:33:05.049Z,995.09
2018-01-21T03:33:45.606Z,995.14
2018-01-21T03:34:26.134Z,995.11
2018-01-21T03:35:06.688Z,995.13
2018-01-21T03:35:47.217Z,995.1
2018-01-21T03:36:27.765Z,995.14
2018-01-21T03:37:08.297Z,995.22
2018-01-21T03:37:48.819Z,995.21
2018-01-21T03:38:29.384Z,995.26
2018-01-21T03:39:09.998Z,995.28
2018-01-21T03:39:50.490Z,995.31
2018-01-21T03:40:31.010Z,995.29
2018-01-21T03:41:11.577Z,995.31
2018-01-21T03:41:52.048Z,995.4
2018-01-21T03:42:32.604Z,995.44
2018-01-21T03:43:13.161Z,995.39
2018-01-21T03:43:53.702Z,995.5
2018-01-21T03:44:34.239Z,995.52
2018-01-21T03:45:14.792Z,995.5
2018-01-21T03:45:55.336Z,995.54
2018-01-21T03:46:35.886Z,995.55
2018-01-21T03:47:16.403Z,995.56
2018-01-21T03:47:56.940Z,995.58
2018-01-21T03:48:37.489Z,995.58
2018-01-21T03:49:17.995Z,995.59
2018-01-21T03:49:58.495Z,995.6
2018-01-21T03:50:39.007Z,995.64
2018-01-21T03:51:19.599Z,995.59
2018-01-21T03:52:00.180Z,995.61
2018-01-21T03:52:40.756Z,995.57
2018-01-21T03:53:21.275Z,995.67
2018-01-21T03:54:01.857Z,995.75
2018-01-21T03:54:42.385Z,995.73
2018-01-21T03:55:22.898Z,995.72
2018-01-21T03:56:03.438Z,995.75
2018-01-21T03:56:43.950Z,995.76
2018-01-21T03:57:24.449Z,995.81
2018-01-21T03:58:05.059Z,995.79
2018-01-21T03:58:45.553Z,995.81
2018-01-21T03:59:26.130Z,995.82
2018-01-21T04:00:06.680Z,995.81
2018-01-21T04:00:47.232Z,995.85
2018-01-21T04:01:27.750Z,995.82
2018-01-21T04:02:08.298Z,995.85
2018-01-21T04:02:48.848Z,995.85
2018-01-21T04:03:29.369Z,995.83
2018-01-21T04:04:09.880Z,995.9
2018-01-21T04:04:50.484Z,995.88
2018-01-21T04:05:30.953Z,995.96
2018-01-21T04:06:11.489Z,995.93
2018-01-21T04:06:52.025Z,995.94
2018-01-21T04:07:32.522Z,995.92
2018-01-21T04:08:13.067Z,995.93
2018-01-21T04:08:53.550Z,995.94
2018-01-21T04:09:34.103Z,995.91
2018-01-21T04:10:14.605Z,995.98
2018-01-21T04:10:55.147Z,996.01
2018-01-21T04:11:35.658Z,995.99
2018-01-21T04:12:16.191Z,996
2018-01-21T04:12:56.724Z,996.04
2018-01-21T04:13:37.234Z,996.12
2018-01-21T04:14:17.800Z,996.06
2018-01-21T04:14:58.271Z,996.09
2018-01-21T04:15:38.826Z,996.08
2018-01-21T04:16:20.195Z,996.11
2018-01-21T04:17:00.820Z,996.17
2018-01-21T04:17:41.340Z,996.13
2018-01-21T04:18:21.855Z,996.2
2018-01-21T04:19:02.376Z,996.24
2018-01-21T04:19:42.884Z,996.22
2018-01-21T04:20:23.426Z,996.27
2018-01-21T04:21:04.032Z,996.27
2018-01-21T04:21:44.551Z,996.29
2018-01-21T04:22:25.079Z,996.27
2018-01-21T04:23:05.619Z,996.37
2018-01-21T04:23:46.143Z,996.35
2018-01-21T04:24:26.666Z,996.35
2018-01-21T04:25:07.238Z,996.31
2018-01-21T04:25:47.729Z,996.33
2018-01-21T04:26:28.317Z,996.33
2018-01-21T04:27:08.837Z,996.34
2018-01-21T04:27:49.423Z,996.32
2018-01-21T04:28:29.925Z,996.37
2018-01-21T04:29:10.486Z,996.39
2018-01-21T04:29:51.053Z,996.39
2018-01-21T04:30:31.562Z,996.4
2018-01-21T04:31:12.171Z,996.43
2018-01-21T04:31:52.663Z,996.4
2018-01-21T04:32:33.240Z,996.4
2018-01-21T04:33:13.785Z,996.44
2018-01-21T04:33:54.369Z,996.41
2018-01-21T04:34:34.859Z,996.44
2018-01-21T04:35:15.433Z,996.45
2018-01-21T04:35:55.960Z,996.48
2018-01-21T04:36:36.516Z,996.51
2018-01-21T04:37:17.054Z,996.52
2018-01-21T04:37:57.589Z,996.56
2018-01-21T04:38:38.132Z,996.6
2018-01-21T04:39:18.676Z,996.55
2018-01-21T04:39:59.221Z,996.58
2018-01-21T04:40:39.727Z,996.57
2018-01-21T04:41:20.334Z,996.59
2018-01-21T04:42:00.889Z,996.59
2018-01-21T04:42:41.455Z,996.61
2018-01-21T04:43:21.978Z,996.61
2018-01-21T04:44:02.537Z,996.59
2018-01-21T04:44:43.092Z,996.63
2018-01-21T04:45:23.630Z,996.63
2018-01-21T04:46:04.137Z,996.65
2018-01-21T04:46:44.654Z,996.68
2018-01-21T04:47:25.188Z,996.68
2018-01-21T04:48:05.800Z,996.7
2018-01-21T04:48:46.286Z,996.71
2018-01-21T04:49:26.850Z,996.74
2018-01-21T04:50:07.369Z,996.74
2018-01-21T04:50:47.897Z,996.73
2018-01-21T04:51:28.445Z,996.74
2018-01-21T04:52:08.997Z,996.75
2018-01-21T04:52:49.549Z,996.74
2018-01-21T04:53:30.066Z,996.79
2018-01-21T04:54:10.612Z,996.81
2018-01-21T04:54:51.159Z,996.85
2018-01-21T04:55:31.703Z,996.83
2018-01-21T04:56:12.255Z,996.86
2018-01-21T04:56:52.813Z,996.89
2018-01-21T04:57:33.351Z,996.93
2018-01-21T04:58:13.883Z,996.87
2018-01-21T04:58:54.411Z,996.94
2018-01-21T04:59:34.921Z,996.93
2018-01-21T05:00:15.418Z,997.05
2018-01-21T05:00:56.016Z,997.01
2018-01-21T05:01:36.556Z,997.05
2018-01-21T05:02:17.055Z,997.09
2018-01-21T05:02:57.576Z,997.09
2018-01-21T05:03:38.115Z,997.08
2018-01-21T05:04:18.649Z,997.1
2018-01-21T05:04:59.189Z,997.14
2018-01-21T05:05:39.766Z,997.14
2018-01-21T05:06:20.296Z,997.14
2018-01-21T05:07:00.849Z,997.15
2018-01-21T05:07:41.368Z,997.16
2018-01-21T05:08:21.905Z,997.16
2018-01-21T05:09:02.417Z,997.19
2018-01-21T05:09:42.976Z,997.18
2018-01-21T05:10:23.500Z,997.18
2018-01-21T05:11:04.059Z,997.19
2018-01-21T05:11:44.593Z,997.18
2018-01-21T05:12:25.142Z,997.19
2018-01-21T05:13:05.631Z,997.22
2018-01-21T05:13:46.195Z,997.23
2018-01-21T05:14:26.733Z,997.22
2018-01-21T05:15:07.370Z,997.23
2018-01-21T05:15:47.846Z,997.2
2018-01-21T05:16:28.393Z,997.29
2018-01-21T05:17:08.932Z,997.35
2018-01-21T05:17:49.412Z,997.29
2018-01-21T05:18:30.029Z,997.34
2018-01-21T05:19:10.577Z,997.32
2018-01-21T05:19:51.125Z,997.42
2018-01-21T05:20:31.854Z,997.38
2018-01-21T05:21:12.471Z,997.41
2018-01-21T05:21:52.937Z,997.43
2018-01-21T05:22:33.559Z,997.42
2018-01-21T05:23:14.098Z,997.38
2018-01-21T05:23:54.624Z,997.49
2018-01-21T05:24:35.148Z,997.49
2018-01-21T05:25:15.654Z,997.58
2018-01-21T05:25:56.259Z,997.6
2018-01-21T05:26:36.785Z,997.56
2018-01-21T05:27:17.334Z,997.61
2018-01-21T05:27:57.914Z,997.63
2018-01-21T05:28:38.451Z,997.64
2018-01-21T05:29:19.007Z,997.62
2018-01-21T05:29:59.523Z,997.67
2018-01-21T05:30:40.045Z,997.68
2018-01-21T05:31:20.602Z,997.69
2018-01-21T05:32:01.115Z,997.69
2018-01-21T05:32:41.637Z,997.7
2018-01-21T05:33:22.185Z,997.68
2018-01-21T05:34:02.706Z,997.73
2018-01-21T05:34:43.284Z,997.74
2018-01-21T05:35:23.836Z,997.76
2018-01-21T05:36:04.338Z,997.77
2018-01-21T05:36:44.916Z,997.8
2018-01-21T05:37:25.409Z,997.81
2018-01-21T05:38:05.967Z,997.77
2018-01-21T05:38:46.483Z,997.84
2018-01-21T05:39:27.041Z,997.83
2018-01-21T05:40:07.538Z,997.87
2018-01-21T05:40:48.073Z,997.88
2018-01-21T05:41:28.667Z,997.92
2018-01-21T05:42:09.343Z,997.89
2018-01-21T05:42:49.855Z,997.92
2018-01-21T05:43:30.419Z,997.9
2018-01-21T05:44:10.968Z,997.93
2018-01-21T05:44:51.455Z,997.93
2018-01-21T05:45:31.953Z,997.94
2018-01-21T05:46:12.554Z,997.94
2018-01-21T05:46:53.110Z,997.99
2018-01-21T05:47:33.611Z,998
2018-01-21T05:48:14.134Z,997.95
2018-01-21T05:48:54.681Z,998.04
2018-01-21T05:49:35.173Z,998.02
2018-01-21T05:50:15.763Z,998.03
2018-01-21T05:50:56.312Z,998.05
2018-01-21T05:51:36.857Z,998.08
2018-01-21T05:52:17.364Z,998.1
2018-01-21T05:52:57.945Z,998.14
2018-01-21T05:53:38.453Z,998.12
2018-01-21T05:54:18.963Z,998.14
2018-01-21T05:54:59.525Z,998.21
2018-01-21T05:55:40.183Z,998.26
2018-01-21T05:56:20.738Z,998.31
2018-01-21T05:57:01.303Z,998.28
2018-01-21T05:57:41.834Z,998.33
2018-01-21T05:58:22.349Z,998.36
2018-01-21T05:59:02.876Z,998.34
2018-01-21T05:59:43.426Z,998.36
2018-01-21T06:00:23.947Z,998.35
2018-01-21T06:01:04.501Z,998.36
2018-01-21T06:01:45.040Z,998.36
2018-01-21T06:02:25.617Z,998.31
2018-01-21T06:03:06.159Z,998.33
2018-01-21T06:03:46.650Z,998.38
2018-01-21T06:04:27.193Z,998.41
2018-01-21T06:05:07.767Z,998.49
2018-01-21T06:05:48.263Z,998.44
2018-01-21T06:06:28.808Z,998.43
2018-01-21T06:07:09.369Z,998.48
2018-01-21T06:07:49.871Z,998.45
2018-01-21T06:08:30.415Z,998.45
2018-01-21T06:09:10.919Z,998.45
2018-01-21T06:09:51.438Z,998.48
2018-01-21T06:10:31.985Z,998.5
2018-01-21T06:11:12.564Z,998.53
2018-01-21T06:11:53.083Z,998.57
2018-01-21T06:12:33.595Z,998.61
2018-01-21T06:13:14.177Z,998.62
2018-01-21T06:13:54.710Z,998.63
2018-01-21T06:14:35.266Z,998.68
2018-01-21T06:15:15.906Z,998.71
2018-01-21T06:15:56.388Z,998.71
2018-01-21T06:16:36.943Z,998.69
2018-01-21T06:17:17.451Z,998.75
2018-01-21T06:17:58.021Z,998.75
2018-01-21T06:18:38.563Z,998.73
2018-01-21T06:19:19.072Z,998.8
2018-01-21T06:19:59.625Z,998.8
2018-01-21T06:20:40.148Z,998.76
2018-01-21T06:21:21.159Z,998.75
2018-01-21T06:22:01.237Z,998.79
2018-01-21T06:22:41.712Z,998.85
2018-01-21T06:23:22.285Z,998.86
2018-01-21T06:24:02.807Z,998.87
2018-01-21T06:24:43.370Z,998.85
2018-01-21T06:25:23.941Z,998.89
2018-01-21T06:26:04.450Z,998.91
2018-01-21T06:26:44.934Z,998.86
2018-01-21T06:27:25.483Z,998.94
2018-01-21T06:28:06.028Z,998.92
2018-01-21T06:28:46.568Z,998.98
2018-01-21T06:29:27.121Z,998.96
2018-01-21T06:30:07.626Z,999.01
2018-01-21T06:30:48.303Z,999
2018-01-21T06:31:28.817Z,998.97
2018-01-21T06:32:09.341Z,999.02
2018-01-21T06:32:49.864Z,999.02
2018-01-21T06:33:30.379Z,999.02
2018-01-21T06:34:10.927Z,999.02
2018-01-21T06:34:51.569Z,999.04
2018-01-21T06:35:32.103Z,999.05
2018-01-21T06:36:12.668Z,999.09
2018-01-21T06:36:53.205Z,999.11
2018-01-21T06:37:33.738Z,999.14
2018-01-21T06:38:14.272Z,999.16
2018-01-21T06:38:54.808Z,999.15
2018-01-21T06:39:35.306Z,999.13
2018-01-21T06:40:15.866Z,999.14
2018-01-21T06:40:56.375Z,999.15
2018-01-21T06:41:36.966Z,999.24
2018-01-21T06:42:17.477Z,999.2
2018-01-21T06:42:58.044Z,999.25
2018-01-21T06:43:38.598Z,999.28
2018-01-21T06:44:19.067Z,999.24
2018-01-21T06:44:59.690Z,999.29
2018-01-21T06:45:40.212Z,999.31
2018-01-21T06:46:20.792Z,999.34
2018-01-21T06:47:01.321Z,999.29
2018-01-21T06:47:41.856Z,999.34
2018-01-21T06:48:22.418Z,999.32
2018-01-21T06:49:02.945Z,999.37
2018-01-21T06:49:43.494Z,999.34
2018-01-21T06:50:24.085Z,999.34
2018-01-21T06:51:04.650Z,999.35
2018-01-21T06:51:45.165Z,999.37
2018-01-21T06:52:25.705Z,999.41
2018-01-21T06:53:06.264Z,999.35
2018-01-21T06:53:46.767Z,999.36
2018-01-21T06:54:27.329Z,999.43
2018-01-21T06:55:07.871Z,999.47
2018-01-21T06:55:48.408Z,999.46
2018-01-21T06:56:28.936Z,999.47
2018-01-21T06:57:09.478Z,999.47
2018-01-21T06:57:49.992Z,999.48
2018-01-21T06:58:30.523Z,999.49
2018-01-21T06:59:11.087Z,999.46
2018-01-21T06:59:51.605Z,999.47
2018-01-21T07:00:32.200Z,999.51
2018-01-21T07:01:12.717Z,999.56
2018-01-21T07:01:53.284Z,999.56
2018-01-21T07:02:33.857Z,999.58
2018-01-21T07:03:14.396Z,999.57
2018-01-21T07:03:54.932Z,999.61
2018-01-21T07:04:35.417Z,999.59
2018-01-21T07:05:15.963Z,999.59
2018-01-21T07:05:56.541Z,999.61
2018-01-21T07:06:37.152Z,999.64
2018-01-21T07:07:17.644Z,999.66
2018-01-21T07:07:58.206Z,999.72
2018-01-21T07:08:38.757Z,999.71
2018-01-21T07:09:19.342Z,999.75
2018-01-21T07:09:59.889Z,999.76
2018-01-21T07:10:40.462Z,999.77
2018-01-21T07:11:21.015Z,999.8
2018-01-21T07:12:01.526Z,999.89
2018-01-21T07:12:42.110Z,999.9
2018-01-21T07:13:22.601Z,999.91
2018-01-21T07:14:03.119Z,999.92
2018-01-21T07:14:43.681Z,999.93
2018-01-21T07:15:24.227Z,999.99
2018-01-21T07:16:04.822Z,1000.01
2018-01-21T07:16:45.357Z,1000.02
2018-01-21T07:17:25.892Z,1000.04
2018-01-21T07:18:06.422Z,1000.06
2018-01-21T07:18:49.104Z,1000.12
2018-01-21T07:19:29.625Z,1000.13
2018-01-21T07:20:10.143Z,1000.13
2018-01-21T07:20:54.259Z,1000.15
2018-01-21T07:21:34.804Z,1000.18
2018-01-21T07:22:15.469Z,1000.17
2018-01-21T07:22:56.043Z,1000.2
2018-01-21T07:23:36.602Z,1000.22
2018-01-21T07:24:17.121Z,1000.18
2018-01-21T07:24:57.672Z,1000.27
2018-01-21T07:25:38.231Z,1000.26
2018-01-21T07:26:18.787Z,1000.26
2018-01-21T07:26:59.286Z,1000.31
2018-01-21T07:27:39.881Z,1000.28
2018-01-21T07:28:20.386Z,1000.36
2018-01-21T07:29:01.033Z,1000.37
2018-01-21T07:29:41.614Z,1000.36
2018-01-21T07:30:22.410Z,1000.47
2018-01-21T07:31:02.940Z,1000.44
2018-01-21T07:31:43.461Z,1000.46
2018-01-21T07:32:24.034Z,1000.48
2018-01-21T07:33:04.573Z,1000.53
2018-01-21T07:33:45.106Z,1000.54
2018-01-21T07:34:26.013Z,1000.53
2018-01-21T07:35:06.582Z,1000.55
2018-01-21T07:35:47.184Z,1000.6
2018-01-21T07:36:27.717Z,1000.6
2018-01-21T07:37:08.202Z,1000.58
2018-01-21T07:37:48.696Z,1000.63
2018-01-21T07:38:29.217Z,1000.64
2018-01-21T07:39:09.763Z,1000.66
2018-01-21T07:39:50.316Z,1000.71
2018-01-21T07:40:30.765Z,1000.7
2018-01-21T07:41:11.307Z,1000.73
2018-01-21T07:41:52.631Z,1000.73
2018-01-21T07:42:33.195Z,1000.74
2018-01-21T07:43:13.715Z,1000.8
2018-01-21T07:43:54.326Z,1000.79
2018-01-21T07:44:34.803Z,1000.77
2018-01-21T07:45:15.410Z,1000.8
2018-01-21T07:45:56.113Z,1000.81
2018-01-21T07:46:36.439Z,1000.83
2018-01-21T07:47:17.005Z,1000.87
2018-01-21T07:47:57.538Z,1000.88
2018-01-21T07:48:38.088Z,1000.87
2018-01-21T07:49:18.641Z,1000.96
2018-01-21T07:49:59.131Z,1001.02
2018-01-21T07:50:39.705Z,1001.04
2018-01-21T07:51:20.302Z,1001.05
2018-01-21T07:52:00.834Z,1001.09
2018-01-21T07:52:41.351Z,1001.09
2018-01-21T07:53:21.898Z,1001.1
2018-01-21T07:54:02.410Z,1001.1
2018-01-21T07:54:42.977Z,1001.15
2018-01-21T07:55:25.113Z,1001.15
2018-01-21T07:56:05.656Z,1001.14
2018-01-21T07:56:46.178Z,1001.19
2018-01-21T07:57:26.800Z,1001.2
2018-01-21T07:58:07.239Z,1001.23
2018-01-21T07:58:47.771Z,1001.24
2018-01-21T07:59:28.293Z,1001.28
2018-01-21T08:00:08.863Z,1001.27
2018-01-21T08:00:49.409Z,1001.33
2018-01-21T08:01:29.943Z,1001.37
2018-01-21T08:02:10.497Z,1001.32
2018-01-21T08:02:51.097Z,1001.39
2018-01-21T08:03:31.642Z,1001.4
2018-01-21T08:04:12.211Z,1001.37
2018-01-21T08:04:52.700Z,1001.39
2018-01-21T08:05:33.252Z,1001.38
2018-01-21T08:06:13.818Z,1001.43
2018-01-21T08:06:54.371Z,1001.45
2018-01-21T08:07:34.966Z,1001.5
2018-01-21T08:08:15.499Z,1001.53
2018-01-21T08:08:56.075Z,1001.52
2018-01-21T08:09:36.628Z,1001.54
2018-01-21T08:10:17.124Z,1001.54
2018-01-21T08:10:57.657Z,1001.58
2018-01-21T08:11:38.202Z,1001.6
2018-01-21T08:12:18.751Z,1001.57
2018-01-21T08:12:59.467Z,1001.61
2018-01-21T08:13:40.024Z,1001.6
2018-01-21T08:14:20.710Z,1001.61
2018-01-21T08:15:01.216Z,1001.67
2018-01-21T08:15:41.844Z,1001.76
2018-01-21T08:16:22.402Z,1001.72
2018-01-21T08:17:02.923Z,1001.75
2018-01-21T08:17:43.481Z,1001.76
2018-01-21T08:18:24.002Z,1001.8
2018-01-21T08:19:04.681Z,1001.8
2018-01-21T08:19:45.294Z,1001.8
2018-01-21T08:20:25.809Z,1001.84
2018-01-21T08:21:06.489Z,1001.86
2018-01-21T08:21:47.051Z,1001.86
2018-01-21T08:22:27.606Z,1001.89
2018-01-21T08:23:08.224Z,1001.89
2018-01-21T08:23:48.803Z,1001.9
2018-01-21T08:24:29.337Z,1001.97
2018-01-21T08:25:09.915Z,1001.95
2018-01-21T08:25:50.476Z,1001.97
2018-01-21T08:26:30.983Z,1001.98
2018-01-21T08:27:11.608Z,1002
2018-01-21T08:27:52.236Z,1002.02